Jamestown, ND

12:22 PM CDT on August 27, 2016 (GMT -0500)
Leapaldt Addition | | Change Station

Elev 1486 ft 46.93 °N, 98.69 °W | Updated 9 minutes ago

Scattered Clouds
Scattered Clouds
73.9 °F
Feels Like 75 °F
N
5.3
Wind Variable Wind from SSE

Today
High -- | Low -- °F
--% Chance of Precip.
Yesterday
High -- | Low -- °F
Precip. -- in
Pressure 29.92 in
Visibility 10.0 miles
Clouds Scattered Clouds 2400 ft
Heat Index 75 °F
Dew Point 65 °F
Humidity 73%
Rainfall 0.02 in
Snow Depth Not available.
6:48 AM 8:22 PM
Waning Crescent, 23% visible
SPECI KJMS 271718Z AUTO 15008KT 10SM SCT024 22/16 A2992 RMK AO2 T02170156
Pressure 29.92 in
Visibility 10.0 miles
Clouds Scattered Clouds 2400 ft
Heat Index 75 °F
Dew Point 65 °F
Humidity 73%
Rainfall 0.02 in
Snow Depth Not available.
6:48 AM 8:22 PM
Waning Crescent, 23% visible
SPECI KJMS 271718Z AUTO 15008KT 10SM SCT024 22/16 A2992 RMK AO2 T02170156

10-Day Weather Forecast

Almanac

Astronomy

Aug. 27, 2016 Rise Set
Actual Time
Civil Twilight
Nautical Twilight
Astronomical Twilight
Moon
Length of Visible Light
Length of Day
Tomorrow will be .
, % of the Moon is Illuminated

Today's Extremes

State Highs State Lows

Community

WunderPhotos

Upload Photos

1,935,387 photos uploaded!

WunderBlog® & News

Nearby

Air Quality

  Air Quality AQ Index Pollutant
Not available.

Snow Depth

Station Depth Elevation

Earthquake Activity

City Distance Mag. Time & Date
Minimum magnitude displayed is 2.5.

Coastal Water Temperatures

Place Temperature

Stations

Nearby Weather Stations

Station Location Temp. Windchill Dew Point Humidity Wind Precip. Elev Updated Type
                   

Watches & Warnings

There are currently no watches in effect.